sensor_id;sensor_type;location;lat;lon;timestamp;temperature;humidity
39347;DHT22;26262;49.836;6.632;2024-02-14T00:02:23;10.30;99.90
39347;DHT22;26262;49.836;6.632;2024-02-14T00:04:54;10.30;99.90
39347;DHT22;26262;49.836;6.632;2024-02-14T00:07:20;10.30;99.90
39347;DHT22;26262;49.836;6.632;2024-02-14T00:09:46;10.30;99.90
39347;DHT22;26262;49.836;6.632;2024-02-14T00:12:12;10.20;99.90
39347;DHT22;26262;49.836;6.632;2024-02-14T00:14:38;10.30;99.90
39347;DHT22;26262;49.836;6.632;2024-02-14T00:17:04;10.20;99.90
39347;DHT22;26262;49.836;6.632;2024-02-14T00:19:30;10.20;99.90
39347;DHT22;26262;49.836;6.632;2024-02-14T00:21:56;10.20;99.90
39347;DHT22;26262;49.836;6.632;2024-02-14T00:24:21;10.30;99.90
39347;DHT22;26262;49.836;6.632;2024-02-14T00:26:49;10.30;99.90
39347;DHT22;26262;49.836;6.632;2024-02-14T00:29:15;10.20;99.90
39347;DHT22;26262;49.836;6.632;2024-02-14T00:31:41;10.20;99.90
39347;DHT22;26262;49.836;6.632;2024-02-14T00:34:08;10.30;99.90
39347;DHT22;26262;49.836;6.632;2024-02-14T00:36:33;10.30;99.90
39347;DHT22;26262;49.836;6.632;2024-02-14T00:38:59;10.30;99.90
39347;DHT22;26262;49.836;6.632;2024-02-14T00:41:24;10.30;99.90
39347;DHT22;26262;49.836;6.632;2024-02-14T00:43:55;10.30;99.90
39347;DHT22;26262;49.836;6.632;2024-02-14T00:46:20;10.20;99.90
39347;DHT22;26262;49.836;6.632;2024-02-14T00:48:46;10.20;99.90
39347;DHT22;26262;49.836;6.632;2024-02-14T00:51:12;10.20;99.90
39347;DHT22;26262;49.836;6.632;2024-02-14T00:53:37;10.20;99.90
39347;DHT22;26262;49.836;6.632;2024-02-14T00:56:03;10.20;99.90
39347;DHT22;26262;49.836;6.632;2024-02-14T00:58:29;10.20;99.90
39347;DHT22;26262;49.836;6.632;2024-02-14T01:00:54;10.20;99.90
39347;DHT22;26262;49.836;6.632;2024-02-14T01:03:20;10.20;99.90
39347;DHT22;26262;49.836;6.632;2024-02-14T01:05:46;10.20;99.90
39347;DHT22;26262;49.836;6.632;2024-02-14T01:08:12;10.20;99.90
39347;DHT22;26262;49.836;6.632;2024-02-14T01:10:38;10.20;99.90
39347;DHT22;26262;49.836;6.632;2024-02-14T01:13:04;10.20;99.90
39347;DHT22;26262;49.836;6.632;2024-02-14T01:15:31;10.20;99.90
39347;DHT22;26262;49.836;6.632;2024-02-14T01:17:57;10.20;99.90
39347;DHT22;26262;49.836;6.632;2024-02-14T01:20:22;10.20;99.90
39347;DHT22;26262;49.836;6.632;2024-02-14T01:22:48;10.20;99.90
39347;DHT22;26262;49.836;6.632;2024-02-14T01:25:14;10.20;99.90
39347;DHT22;26262;49.836;6.632;2024-02-14T01:27:39;10.20;99.90
39347;DHT22;26262;49.836;6.632;2024-02-14T01:30:06;10.20;99.90
39347;DHT22;26262;49.836;6.632;2024-02-14T01:32:32;10.20;99.90
39347;DHT22;26262;49.836;6.632;2024-02-14T01:34:57;10.20;99.90
39347;DHT22;26262;49.836;6.632;2024-02-14T01:37:24;10.20;99.90
39347;DHT22;26262;49.836;6.632;2024-02-14T01:39:50;10.20;99.90
39347;DHT22;26262;49.836;6.632;2024-02-14T01:42:16;10.20;99.90
39347;DHT22;26262;49.836;6.632;2024-02-14T01:44:41;10.20;99.90
39347;DHT22;26262;49.836;6.632;2024-02-14T01:47:09;10.20;99.90
39347;DHT22;26262;49.836;6.632;2024-02-14T01:49:35;10.20;99.90
39347;DHT22;26262;49.836;6.632;2024-02-14T01:52:02;10.20;99.90
39347;DHT22;26262;49.836;6.632;2024-02-14T01:54:29;10.20;99.90
39347;DHT22;26262;49.836;6.632;2024-02-14T01:56:56;10.20;99.90
39347;DHT22;26262;49.836;6.632;2024-02-14T01:59:23;10.20;99.90
39347;DHT22;26262;49.836;6.632;2024-02-14T02:01:50;10.20;99.90
39347;DHT22;26262;49.836;6.632;2024-02-14T02:04:17;10.20;99.90
39347;DHT22;26262;49.836;6.632;2024-02-14T02:06:43;10.20;99.90
39347;DHT22;26262;49.836;6.632;2024-02-14T02:09:09;10.20;99.90
39347;DHT22;26262;49.836;6.632;2024-02-14T02:11:49;10.20;99.90
39347;DHT22;26262;49.836;6.632;2024-02-14T02:14:15;10.20;99.90
39347;DHT22;26262;49.836;6.632;2024-02-14T02:16:41;10.20;99.90
39347;DHT22;26262;49.836;6.632;2024-02-14T02:19:07;10.20;99.90
39347;DHT22;26262;49.836;6.632;2024-02-14T02:21:35;10.20;99.90
39347;DHT22;26262;49.836;6.632;2024-02-14T02:24:01;10.20;99.90
39347;DHT22;26262;49.836;6.632;2024-02-14T02:26:27;10.20;99.90
39347;DHT22;26262;49.836;6.632;2024-02-14T02:28:52;10.20;99.90
39347;DHT22;26262;49.836;6.632;2024-02-14T02:31:19;10.20;99.90
39347;DHT22;26262;49.836;6.632;2024-02-14T02:33:44;10.20;99.90
39347;DHT22;26262;49.836;6.632;2024-02-14T02:36:10;10.20;99.90
39347;DHT22;26262;49.836;6.632;2024-02-14T02:38:35;10.20;99.90
39347;DHT22;26262;49.836;6.632;2024-02-14T02:41:04;10.20;99.90
39347;DHT22;26262;49.836;6.632;2024-02-14T02:43:33;10.20;99.90
39347;DHT22;26262;49.836;6.632;2024-02-14T02:46:00;10.20;99.90
39347;DHT22;26262;49.836;6.632;2024-02-14T02:48:25;10.20;99.90
39347;DHT22;26262;49.836;6.632;2024-02-14T02:50:51;10.20;99.90
39347;DHT22;26262;49.836;6.632;2024-02-14T02:53:17;10.20;99.90
39347;DHT22;26262;49.836;6.632;2024-02-14T02:55:43;10.20;99.90
39347;DHT22;26262;49.836;6.632;2024-02-14T02:58:09;10.20;99.90
39347;DHT22;26262;49.836;6.632;2024-02-14T03:00:35;10.20;99.90
39347;DHT22;26262;49.836;6.632;2024-02-14T03:03:00;10.20;99.90
39347;DHT22;26262;49.836;6.632;2024-02-14T03:05:28;10.20;99.90
39347;DHT22;26262;49.836;6.632;2024-02-14T03:07:54;10.20;99.90
39347;DHT22;26262;49.836;6.632;2024-02-14T03:10:22;10.20;99.90
39347;DHT22;26262;49.836;6.632;2024-02-14T03:12:48;10.20;99.90
39347;DHT22;26262;49.836;6.632;2024-02-14T03:15:14;10.20;99.90
39347;DHT22;26262;49.836;6.632;2024-02-14T03:17:40;10.20;99.90
39347;DHT22;26262;49.836;6.632;2024-02-14T03:20:08;10.20;99.90
39347;DHT22;26262;49.836;6.632;2024-02-14T03:22:36;10.20;99.90
39347;DHT22;26262;49.836;6.632;2024-02-14T03:25:02;10.20;99.90
39347;DHT22;26262;49.836;6.632;2024-02-14T03:27:28;10.20;99.90
39347;DHT22;26262;49.836;6.632;2024-02-14T03:29:56;10.20;99.90
39347;DHT22;26262;49.836;6.632;2024-02-14T03:32:23;10.20;99.90
39347;DHT22;26262;49.836;6.632;2024-02-14T03:34:49;10.20;99.90
39347;DHT22;26262;49.836;6.632;2024-02-14T03:37:14;10.20;99.90
39347;DHT22;26262;49.836;6.632;2024-02-14T03:39:40;10.20;99.90
39347;DHT22;26262;49.836;6.632;2024-02-14T03:42:06;10.20;99.90
39347;DHT22;26262;49.836;6.632;2024-02-14T03:44:33;10.20;99.90
39347;DHT22;26262;49.836;6.632;2024-02-14T03:46:59;10.20;99.90
39347;DHT22;26262;49.836;6.632;2024-02-14T03:49:25;10.20;99.90
39347;DHT22;26262;49.836;6.632;2024-02-14T03:51:51;10.20;99.90
39347;DHT22;26262;49.836;6.632;2024-02-14T03:54:20;10.20;99.90
39347;DHT22;26262;49.836;6.632;2024-02-14T03:56:45;10.20;99.90
39347;DHT22;26262;49.836;6.632;2024-02-14T03:59:11;10.20;99.90
39347;DHT22;26262;49.836;6.632;2024-02-14T04:01:36;10.20;99.90
39347;DHT22;26262;49.836;6.632;2024-02-14T04:04:02;10.20;99.90
39347;DHT22;26262;49.836;6.632;2024-02-14T04:06:28;10.20;99.90
39347;DHT22;26262;49.836;6.632;2024-02-14T04:08:57;10.20;99.90
39347;DHT22;26262;49.836;6.632;2024-02-14T04:11:22;10.20;99.90
39347;DHT22;26262;49.836;6.632;2024-02-14T04:13:48;10.20;99.90
39347;DHT22;26262;49.836;6.632;2024-02-14T04:16:14;10.20;99.90
39347;DHT22;26262;49.836;6.632;2024-02-14T04:18:39;10.20;99.90
39347;DHT22;26262;49.836;6.632;2024-02-14T04:21:07;10.20;99.90
39347;DHT22;26262;49.836;6.632;2024-02-14T04:23:33;10.20;99.90
39347;DHT22;26262;49.836;6.632;2024-02-14T04:25:58;10.20;99.90
39347;DHT22;26262;49.836;6.632;2024-02-14T04:28:24;10.20;99.90
39347;DHT22;26262;49.836;6.632;2024-02-14T04:30:50;10.20;99.90
39347;DHT22;26262;49.836;6.632;2024-02-14T04:33:15;10.20;99.90
39347;DHT22;26262;49.836;6.632;2024-02-14T04:35:41;10.20;99.90
39347;DHT22;26262;49.836;6.632;2024-02-14T04:38:06;10.20;99.90
39347;DHT22;26262;49.836;6.632;2024-02-14T04:40:34;10.20;99.90
39347;DHT22;26262;49.836;6.632;2024-02-14T04:43:00;10.20;99.90
39347;DHT22;26262;49.836;6.632;2024-02-14T04:45:25;10.20;99.90
39347;DHT22;26262;49.836;6.632;2024-02-14T04:47:51;10.20;99.90
39347;DHT22;26262;49.836;6.632;2024-02-14T04:50:17;10.20;99.90
39347;DHT22;26262;49.836;6.632;2024-02-14T04:52:44;10.20;99.90
39347;DHT22;26262;49.836;6.632;2024-02-14T04:55:09;10.20;99.90
39347;DHT22;26262;49.836;6.632;2024-02-14T04:57:35;10.20;99.90
39347;DHT22;26262;49.836;6.632;2024-02-14T05:00:03;10.20;99.90
39347;DHT22;26262;49.836;6.632;2024-02-14T05:02:30;10.20;99.90
39347;DHT22;26262;49.836;6.632;2024-02-14T05:04:56;10.20;99.90
39347;DHT22;26262;49.836;6.632;2024-02-14T05:07:22;10.20;99.90
39347;DHT22;26262;49.836;6.632;2024-02-14T05:09:47;10.20;99.90
39347;DHT22;26262;49.836;6.632;2024-02-14T05:12:15;10.20;99.90
39347;DHT22;26262;49.836;6.632;2024-02-14T05:14:41;10.20;99.90
39347;DHT22;26262;49.836;6.632;2024-02-14T05:17:07;10.20;99.90
39347;DHT22;26262;49.836;6.632;2024-02-14T05:19:33;10.20;99.90
39347;DHT22;26262;49.836;6.632;2024-02-14T05:21:59;10.20;99.90
39347;DHT22;26262;49.836;6.632;2024-02-14T05:24:24;10.20;99.90
39347;DHT22;26262;49.836;6.632;2024-02-14T05:26:52;10.20;99.90
39347;DHT22;26262;49.836;6.632;2024-02-14T05:29:18;10.20;99.90
39347;DHT22;26262;49.836;6.632;2024-02-14T05:31:46;10.20;99.90
39347;DHT22;26262;49.836;6.632;2024-02-14T05:34:14;10.20;99.90
39347;DHT22;26262;49.836;6.632;2024-02-14T05:36:39;10.20;99.90
39347;DHT22;26262;49.836;6.632;2024-02-14T05:39:05;10.20;99.90
39347;DHT22;26262;49.836;6.632;2024-02-14T05:41:33;10.20;99.90
39347;DHT22;26262;49.836;6.632;2024-02-14T05:44:03;10.20;99.90
39347;DHT22;26262;49.836;6.632;2024-02-14T05:46:28;10.20;99.90
39347;DHT22;26262;49.836;6.632;2024-02-14T05:48:54;10.20;99.90
39347;DHT22;26262;49.836;6.632;2024-02-14T05:51:20;10.20;99.90
39347;DHT22;26262;49.836;6.632;2024-02-14T05:53:46;10.20;99.90
39347;DHT22;26262;49.836;6.632;2024-02-14T05:56:11;10.20;99.90
39347;DHT22;26262;49.836;6.632;2024-02-14T05:58:37;10.20;99.90
39347;DHT22;26262;49.836;6.632;2024-02-14T06:01:02;10.20;99.90
39347;DHT22;26262;49.836;6.632;2024-02-14T06:03:28;10.20;99.90
39347;DHT22;26262;49.836;6.632;2024-02-14T06:05:54;10.20;99.90
39347;DHT22;26262;49.836;6.632;2024-02-14T06:08:20;10.20;99.90
39347;DHT22;26262;49.836;6.632;2024-02-14T06:10:46;10.20;99.90
39347;DHT22;26262;49.836;6.632;2024-02-14T06:13:11;10.20;99.90
39347;DHT22;26262;49.836;6.632;2024-02-14T06:15:37;10.20;99.90
39347;DHT22;26262;49.836;6.632;2024-02-14T06:18:02;10.20;99.90
39347;DHT22;26262;49.836;6.632;2024-02-14T06:20:28;10.20;99.90
39347;DHT22;26262;49.836;6.632;2024-02-14T06:22:53;10.20;99.90
39347;DHT22;26262;49.836;6.632;2024-02-14T06:25:20;10.20;99.90
39347;DHT22;26262;49.836;6.632;2024-02-14T06:27:45;10.20;99.90
39347;DHT22;26262;49.836;6.632;2024-02-14T06:30:11;10.20;99.90
39347;DHT22;26262;49.836;6.632;2024-02-14T06:32:37;10.20;99.90
39347;DHT22;26262;49.836;6.632;2024-02-14T06:35:03;10.20;99.90
39347;DHT22;26262;49.836;6.632;2024-02-14T06:37:28;10.20;99.90
39347;DHT22;26262;49.836;6.632;2024-02-14T06:39:54;10.20;99.90
39347;DHT22;26262;49.836;6.632;2024-02-14T06:42:19;10.20;99.90
39347;DHT22;26262;49.836;6.632;2024-02-14T06:44:45;10.20;99.90
39347;DHT22;26262;49.836;6.632;2024-02-14T06:47:11;10.20;99.90
39347;DHT22;26262;49.836;6.632;2024-02-14T06:49:37;10.20;99.90
39347;DHT22;26262;49.836;6.632;2024-02-14T06:52:03;10.20;99.90
39347;DHT22;26262;49.836;6.632;2024-02-14T06:54:29;10.20;99.90
39347;DHT22;26262;49.836;6.632;2024-02-14T06:56:58;10.20;99.90
39347;DHT22;26262;49.836;6.632;2024-02-14T06:59:23;10.20;99.90
39347;DHT22;26262;49.836;6.632;2024-02-14T07:01:49;10.20;99.90
39347;DHT22;26262;49.836;6.632;2024-02-14T07:04:14;10.20;99.90
39347;DHT22;26262;49.836;6.632;2024-02-14T07:06:41;10.20;99.90
39347;DHT22;26262;49.836;6.632;2024-02-14T07:09:06;10.20;99.90
39347;DHT22;26262;49.836;6.632;2024-02-14T07:11:32;10.20;99.90
39347;DHT22;26262;49.836;6.632;2024-02-14T07:13:57;10.20;99.90
39347;DHT22;26262;49.836;6.632;2024-02-14T07:16:23;10.20;99.90
39347;DHT22;26262;49.836;6.632;2024-02-14T07:18:49;10.20;99.90
39347;DHT22;26262;49.836;6.632;2024-02-14T07:21:15;10.20;99.90
39347;DHT22;26262;49.836;6.632;2024-02-14T07:23:42;10.20;99.90
39347;DHT22;26262;49.836;6.632;2024-02-14T07:26:07;10.20;99.90
39347;DHT22;26262;49.836;6.632;2024-02-14T07:28:33;10.20;99.90
39347;DHT22;26262;49.836;6.632;2024-02-14T07:30:58;10.20;99.90
39347;DHT22;26262;49.836;6.632;2024-02-14T07:33:24;10.20;99.90
39347;DHT22;26262;49.836;6.632;2024-02-14T07:35:49;10.20;99.90
39347;DHT22;26262;49.836;6.632;2024-02-14T07:38:15;10.20;99.90
39347;DHT22;26262;49.836;6.632;2024-02-14T07:40:42;10.20;99.90
39347;DHT22;26262;49.836;6.632;2024-02-14T07:43:07;10.30;99.90
39347;DHT22;26262;49.836;6.632;2024-02-14T07:45:33;10.20;99.90
39347;DHT22;26262;49.836;6.632;2024-02-14T07:47:59;10.20;99.90
39347;DHT22;26262;49.836;6.632;2024-02-14T07:50:24;10.20;99.90
39347;DHT22;26262;49.836;6.632;2024-02-14T07:52:50;10.20;99.90
39347;DHT22;26262;49.836;6.632;2024-02-14T07:55:15;10.20;99.90
39347;DHT22;26262;49.836;6.632;2024-02-14T07:57:42;10.20;99.90
39347;DHT22;26262;49.836;6.632;2024-02-14T08:00:08;10.30;99.90
39347;DHT22;26262;49.836;6.632;2024-02-14T08:02:35;10.20;99.90
39347;DHT22;26262;49.836;6.632;2024-02-14T08:05:01;10.30;99.90
39347;DHT22;26262;49.836;6.632;2024-02-14T08:07:27;10.20;99.90
39347;DHT22;26262;49.836;6.632;2024-02-14T08:09:54;10.20;99.90
39347;DHT22;26262;49.836;6.632;2024-02-14T08:12:20;10.20;99.90
39347;DHT22;26262;49.836;6.632;2024-02-14T08:14:46;10.20;99.90
39347;DHT22;26262;49.836;6.632;2024-02-14T08:17:12;10.30;99.90
39347;DHT22;26262;49.836;6.632;2024-02-14T08:19:38;10.20;99.90
39347;DHT22;26262;49.836;6.632;2024-02-14T08:22:05;10.30;99.90
39347;DHT22;26262;49.836;6.632;2024-02-14T08:24:31;10.20;99.90
39347;DHT22;26262;49.836;6.632;2024-02-14T08:26:56;10.20;99.90
39347;DHT22;26262;49.836;6.632;2024-02-14T08:29:22;10.20;99.90
39347;DHT22;26262;49.836;6.632;2024-02-14T08:31:48;10.20;99.90
39347;DHT22;26262;49.836;6.632;2024-02-14T08:34:14;10.20;99.90
39347;DHT22;26262;49.836;6.632;2024-02-14T08:36:40;10.20;99.90
39347;DHT22;26262;49.836;6.632;2024-02-14T08:39:10;10.30;99.90
39347;DHT22;26262;49.836;6.632;2024-02-14T08:41:36;10.20;99.90
39347;DHT22;26262;49.836;6.632;2024-02-14T08:44:02;10.30;99.90
39347;DHT22;26262;49.836;6.632;2024-02-14T08:46:29;10.30;99.90
39347;DHT22;26262;49.836;6.632;2024-02-14T08:48:55;10.30;99.90
39347;DHT22;26262;49.836;6.632;2024-02-14T08:51:20;10.20;99.90
39347;DHT22;26262;49.836;6.632;2024-02-14T08:53:46;10.30;99.90
39347;DHT22;26262;49.836;6.632;2024-02-14T08:56:12;10.30;99.90
39347;DHT22;26262;49.836;6.632;2024-02-14T08:58:38;10.30;99.90
39347;DHT22;26262;49.836;6.632;2024-02-14T09:01:04;10.30;99.90
39347;DHT22;26262;49.836;6.632;2024-02-14T09:03:30;10.30;99.90
39347;DHT22;26262;49.836;6.632;2024-02-14T09:05:57;10.30;99.90
39347;DHT22;26262;49.836;6.632;2024-02-14T09:08:22;10.30;99.90
39347;DHT22;26262;49.836;6.632;2024-02-14T09:10:52;10.30;99.90
39347;DHT22;26262;49.836;6.632;2024-02-14T09:13:17;10.30;99.90
39347;DHT22;26262;49.836;6.632;2024-02-14T09:15:43;10.30;99.90
39347;DHT22;26262;49.836;6.632;2024-02-14T09:18:09;10.30;99.90
39347;DHT22;26262;49.836;6.632;2024-02-14T09:20:34;10.30;99.90
39347;DHT22;26262;49.836;6.632;2024-02-14T09:23:00;10.30;99.90
39347;DHT22;26262;49.836;6.632;2024-02-14T09:25:26;10.30;99.90
39347;DHT22;26262;49.836;6.632;2024-02-14T09:27:51;10.30;99.90
39347;DHT22;26262;49.836;6.632;2024-02-14T09:30:17;10.30;99.90
39347;DHT22;26262;49.836;6.632;2024-02-14T09:32:44;10.30;99.90
39347;DHT22;26262;49.836;6.632;2024-02-14T09:35:09;10.30;99.90
39347;DHT22;26262;49.836;6.632;2024-02-14T09:37:35;10.30;99.90
39347;DHT22;26262;49.836;6.632;2024-02-14T09:40:03;10.30;99.90
39347;DHT22;26262;49.836;6.632;2024-02-14T09:42:38;10.30;99.90
39347;DHT22;26262;49.836;6.632;2024-02-14T09:45:06;10.30;99.90
39347;DHT22;26262;49.836;6.632;2024-02-14T09:47:32;10.30;99.90
39347;DHT22;26262;49.836;6.632;2024-02-14T09:49:59;10.40;99.90
39347;DHT22;26262;49.836;6.632;2024-02-14T09:52:27;10.40;99.90
39347;DHT22;26262;49.836;6.632;2024-02-14T09:54:53;10.40;99.90
39347;DHT22;26262;49.836;6.632;2024-02-14T09:57:19;10.40;99.90
39347;DHT22;26262;49.836;6.632;2024-02-14T09:59:45;10.50;99.90
39347;DHT22;26262;49.836;6.632;2024-02-14T10:02:12;10.40;99.90
39347;DHT22;26262;49.836;6.632;2024-02-14T10:04:37;10.50;99.90
39347;DHT22;26262;49.836;6.632;2024-02-14T10:07:06;10.50;99.90
39347;DHT22;26262;49.836;6.632;2024-02-14T10:09:40;10.50;99.90
39347;DHT22;26262;49.836;6.632;2024-02-14T10:12:07;10.50;99.90
39347;DHT22;26262;49.836;6.632;2024-02-14T10:14:34;10.50;99.90
39347;DHT22;26262;49.836;6.632;2024-02-14T10:17:01;10.50;99.90
39347;DHT22;26262;49.836;6.632;2024-02-14T10:19:26;10.50;99.90
39347;DHT22;26262;49.836;6.632;2024-02-14T10:21:59;10.60;99.90
39347;DHT22;26262;49.836;6.632;2024-02-14T10:24:26;10.60;99.90
39347;DHT22;26262;49.836;6.632;2024-02-14T10:26:53;10.60;99.90
39347;DHT22;26262;49.836;6.632;2024-02-14T10:29:19;10.60;99.90
39347;DHT22;26262;49.836;6.632;2024-02-14T10:31:46;10.60;99.90
39347;DHT22;26262;49.836;6.632;2024-02-14T10:34:12;10.60;99.90
39347;DHT22;26262;49.836;6.632;2024-02-14T10:36:38;10.60;99.90
39347;DHT22;26262;49.836;6.632;2024-02-14T10:39:07;10.60;99.90
39347;DHT22;26262;49.836;6.632;2024-02-14T10:41:33;10.60;99.90
39347;DHT22;26262;49.836;6.632;2024-02-14T10:44:04;10.60;99.90
39347;DHT22;26262;49.836;6.632;2024-02-14T10:46:36;10.60;99.90
39347;DHT22;26262;49.836;6.632;2024-02-14T10:49:03;10.60;99.90
39347;DHT22;26262;49.836;6.632;2024-02-14T10:51:33;10.60;99.90
39347;DHT22;26262;49.836;6.632;2024-02-14T10:54:04;10.60;99.90
39347;DHT22;26262;49.836;6.632;2024-02-14T10:56:32;10.60;99.90
39347;DHT22;26262;49.836;6.632;2024-02-14T10:59:01;10.60;99.90
39347;DHT22;26262;49.836;6.632;2024-02-14T11:01:28;10.60;99.90
39347;DHT22;26262;49.836;6.632;2024-02-14T11:03:58;10.60;99.90
39347;DHT22;26262;49.836;6.632;2024-02-14T11:06:24;10.60;99.90
39347;DHT22;26262;49.836;6.632;2024-02-14T11:09:04;10.60;99.90
39347;DHT22;26262;49.836;6.632;2024-02-14T11:11:35;10.60;99.90
39347;DHT22;26262;49.836;6.632;2024-02-14T11:14:02;10.60;99.90
39347;DHT22;26262;49.836;6.632;2024-02-14T11:16:30;10.60;99.90
39347;DHT22;26262;49.836;6.632;2024-02-14T11:19:12;10.70;99.90
39347;DHT22;26262;49.836;6.632;2024-02-14T11:21:41;10.70;99.90
39347;DHT22;26262;49.836;6.632;2024-02-14T11:24:12;10.70;99.90
39347;DHT22;26262;49.836;6.632;2024-02-14T11:26:49;10.70;99.90
39347;DHT22;26262;49.836;6.632;2024-02-14T11:29:17;10.70;99.90
39347;DHT22;26262;49.836;6.632;2024-02-14T11:31:44;10.70;99.90
39347;DHT22;26262;49.836;6.632;2024-02-14T11:34:15;10.70;99.90
39347;DHT22;26262;49.836;6.632;2024-02-14T11:36:42;10.70;99.90
39347;DHT22;26262;49.836;6.632;2024-02-14T11:39:08;10.70;99.90
39347;DHT22;26262;49.836;6.632;2024-02-14T11:41:34;10.70;99.90
39347;DHT22;26262;49.836;6.632;2024-02-14T11:44:04;10.70;99.90
39347;DHT22;26262;49.836;6.632;2024-02-14T11:46:34;10.70;99.90
39347;DHT22;26262;49.836;6.632;2024-02-14T11:49:01;10.70;99.90
39347;DHT22;26262;49.836;6.632;2024-02-14T11:51:32;10.70;99.90
39347;DHT22;26262;49.836;6.632;2024-02-14T11:53:59;10.70;99.90
39347;DHT22;26262;49.836;6.632;2024-02-14T11:56:33;10.70;99.90
39347;DHT22;26262;49.836;6.632;2024-02-14T11:59:01;10.70;99.90
39347;DHT22;26262;49.836;6.632;2024-02-14T12:01:31;10.70;99.90
39347;DHT22;26262;49.836;6.632;2024-02-14T12:04:04;10.70;99.90
39347;DHT22;26262;49.836;6.632;2024-02-14T12:06:31;10.70;99.90
39347;DHT22;26262;49.836;6.632;2024-02-14T12:08:58;10.80;99.90
39347;DHT22;26262;49.836;6.632;2024-02-14T12:11:27;10.80;99.90
39347;DHT22;26262;49.836;6.632;2024-02-14T12:13:54;10.80;99.90
39347;DHT22;26262;49.836;6.632;2024-02-14T12:16:20;10.80;99.90
39347;DHT22;26262;49.836;6.632;2024-02-14T12:18:46;10.80;99.90
39347;DHT22;26262;49.836;6.632;2024-02-14T12:21:12;10.80;99.90
39347;DHT22;26262;49.836;6.632;2024-02-14T12:23:38;10.80;99.90
39347;DHT22;26262;49.836;6.632;2024-02-14T12:26:04;10.80;99.90
39347;DHT22;26262;49.836;6.632;2024-02-14T12:28:31;10.80;99.90
39347;DHT22;26262;49.836;6.632;2024-02-14T12:30:57;10.80;99.90
39347;DHT22;26262;49.836;6.632;2024-02-14T12:33:27;10.80;99.90
39347;DHT22;26262;49.836;6.632;2024-02-14T12:35:57;10.80;99.90
39347;DHT22;26262;49.836;6.632;2024-02-14T12:38:24;10.80;99.90
39347;DHT22;26262;49.836;6.632;2024-02-14T12:40:50;10.80;99.90
39347;DHT22;26262;49.836;6.632;2024-02-14T12:43:16;10.80;99.90
39347;DHT22;26262;49.836;6.632;2024-02-14T12:45:43;10.80;99.90
39347;DHT22;26262;49.836;6.632;2024-02-14T12:48:10;10.80;99.90
39347;DHT22;26262;49.836;6.632;2024-02-14T12:50:37;10.80;99.90
39347;DHT22;26262;49.836;6.632;2024-02-14T12:53:07;10.90;99.90
39347;DHT22;26262;49.836;6.632;2024-02-14T12:55:33;10.90;99.90
39347;DHT22;26262;49.836;6.632;2024-02-14T12:57:59;10.90;99.90
39347;DHT22;26262;49.836;6.632;2024-02-14T13:00:24;10.90;99.90
39347;DHT22;26262;49.836;6.632;2024-02-14T13:02:50;10.90;99.90
39347;DHT22;26262;49.836;6.632;2024-02-14T13:05:16;10.90;99.90
39347;DHT22;26262;49.836;6.632;2024-02-14T13:07:43;10.90;99.90
39347;DHT22;26262;49.836;6.632;2024-02-14T13:10:10;10.90;99.90
39347;DHT22;26262;49.836;6.632;2024-02-14T13:12:36;10.90;99.90
39347;DHT22;26262;49.836;6.632;2024-02-14T13:15:02;10.90;99.90
39347;DHT22;26262;49.836;6.632;2024-02-14T13:17:28;10.90;99.90
39347;DHT22;26262;49.836;6.632;2024-02-14T13:19:54;10.90;99.90
39347;DHT22;26262;49.836;6.632;2024-02-14T13:22:20;10.90;99.90
39347;DHT22;26262;49.836;6.632;2024-02-14T13:24:46;10.90;99.90
39347;DHT22;26262;49.836;6.632;2024-02-14T13:27:11;10.90;99.90
39347;DHT22;26262;49.836;6.632;2024-02-14T13:29:37;10.90;99.90
39347;DHT22;26262;49.836;6.632;2024-02-14T13:32:03;11.00;99.90
39347;DHT22;26262;49.836;6.632;2024-02-14T13:34:30;10.90;99.90
39347;DHT22;26262;49.836;6.632;2024-02-14T13:36:56;11.00;99.90
39347;DHT22;26262;49.836;6.632;2024-02-14T13:39:23;10.90;99.90
39347;DHT22;26262;49.836;6.632;2024-02-14T13:41:48;11.00;99.90
39347;DHT22;26262;49.836;6.632;2024-02-14T13:44:14;11.00;99.90
39347;DHT22;26262;49.836;6.632;2024-02-14T13:46:44;11.00;99.90
39347;DHT22;26262;49.836;6.632;2024-02-14T13:49:10;10.90;99.90
39347;DHT22;26262;49.836;6.632;2024-02-14T13:51:37;11.00;99.90
39347;DHT22;26262;49.836;6.632;2024-02-14T13:54:02;11.00;99.90
39347;DHT22;26262;49.836;6.632;2024-02-14T13:56:29;11.00;99.90
39347;DHT22;26262;49.836;6.632;2024-02-14T13:58:54;11.00;99.90
39347;DHT22;26262;49.836;6.632;2024-02-14T14:01:20;11.00;99.90
39347;DHT22;26262;49.836;6.632;2024-02-14T14:03:45;11.00;99.90
39347;DHT22;26262;49.836;6.632;2024-02-14T14:06:13;11.00;99.90
39347;DHT22;26262;49.836;6.632;2024-02-14T14:08:39;11.00;99.90
39347;DHT22;26262;49.836;6.632;2024-02-14T14:11:05;11.00;99.90
39347;DHT22;26262;49.836;6.632;2024-02-14T14:13:31;11.00;99.90
39347;DHT22;26262;49.836;6.632;2024-02-14T14:16:02;11.00;99.90
39347;DHT22;26262;49.836;6.632;2024-02-14T14:18:30;11.00;99.90
39347;DHT22;26262;49.836;6.632;2024-02-14T14:20:56;11.00;99.90
39347;DHT22;26262;49.836;6.632;2024-02-14T14:23:21;11.00;99.90
39347;DHT22;26262;49.836;6.632;2024-02-14T14:25:47;11.00;99.90
39347;DHT22;26262;49.836;6.632;2024-02-14T14:28:12;11.00;99.90
39347;DHT22;26262;49.836;6.632;2024-02-14T14:30:40;11.10;99.90
39347;DHT22;26262;49.836;6.632;2024-02-14T14:33:05;11.10;99.90
39347;DHT22;26262;49.836;6.632;2024-02-14T14:35:33;11.10;99.90
39347;DHT22;26262;49.836;6.632;2024-02-14T14:37:59;11.10;99.90
39347;DHT22;26262;49.836;6.632;2024-02-14T14:40:25;11.10;99.90
39347;DHT22;26262;49.836;6.632;2024-02-14T14:42:51;11.10;99.90
39347;DHT22;26262;49.836;6.632;2024-02-14T14:45:18;11.10;99.90
39347;DHT22;26262;49.836;6.632;2024-02-14T14:47:43;11.10;99.90
39347;DHT22;26262;49.836;6.632;2024-02-14T14:50:09;11.10;99.90
39347;DHT22;26262;49.836;6.632;2024-02-14T14:52:34;11.10;99.90
39347;DHT22;26262;49.836;6.632;2024-02-14T14:55:00;11.10;99.90
39347;DHT22;26262;49.836;6.632;2024-02-14T14:57:25;11.10;99.90
39347;DHT22;26262;49.836;6.632;2024-02-14T14:59:55;11.10;99.90
39347;DHT22;26262;49.836;6.632;2024-02-14T15:02:20;11.10;99.90
39347;DHT22;26262;49.836;6.632;2024-02-14T15:04:47;11.20;99.90
39347;DHT22;26262;49.836;6.632;2024-02-14T15:07:13;11.20;99.90
39347;DHT22;26262;49.836;6.632;2024-02-14T15:09:39;11.20;99.90
39347;DHT22;26262;49.836;6.632;2024-02-14T15:12:05;11.20;99.90
39347;DHT22;26262;49.836;6.632;2024-02-14T15:14:30;11.20;99.90
39347;DHT22;26262;49.836;6.632;2024-02-14T15:16:56;11.20;99.90
39347;DHT22;26262;49.836;6.632;2024-02-14T15:19:22;11.20;99.90
39347;DHT22;26262;49.836;6.632;2024-02-14T15:21:50;11.30;99.90
39347;DHT22;26262;49.836;6.632;2024-02-14T15:24:16;11.20;99.90
39347;DHT22;26262;49.836;6.632;2024-02-14T15:26:41;11.30;99.90